Página principal
METAR-TAF:

METAR-TAF

Aeroportos :

Aeroporto Internacional Gobernador Francisco Gabrielli

Mendoza, Argentina

latitude: 32-50S, longitude: 068-47W, altura: 705 m

Observação actual do tempo

O boletim foi feito há 20 minutos, às 11:00 UTC
Vento calmo
Temperatura -1°C
Humidade 69%
Pressão 1030 hPa
Visibilidade 10 km ou mais
sem nuvens abaixo de 1500 metros e sem cumulonimbus

METAR: SAME 201100Z 00000KT CAVOK M01/M06 Q1030

Hora: 08:20 (11:20 UTC)

Previsão

O boletim foi feito há 6 horas e 20 minutos, às 05:00 UTC
Previsão válida de 20 às 06 UTC a 21 às 06 UTC
Vento 5 kt de noroeste
Visibilidade 10 km ou mais
sem nuvens abaixo de 1500 metros e sem cumulonimbus
Tornando-se
de 20 às 13 UTC a 20 às 16 UTC
Vento 10 kt de nordeste

TAF: SAME 200500Z 2006/2106 32005KT CAVOK TX15/2020Z TNM01/2010Z BECMG 2013/2016 05010KT

Observações e previsões do tempo de mais de 4000 aeroportos (mensagens METAR e TAF).

As estações disponíveis são os pontos amarelos e vermelhos sobre o mapa.

Mova o rato sobre o mapa para ver o nome da estação.

Depois clique no ponto para visualizar as observações e previsões meteorológicas.

Para alterar o mapa : clique nos botões verdes com uma cruz preta para aumentar o zoom; no botão verde com uma pitada de zoom; ou nas setas verdes para mapas adjacentes.


METAR-TAF: